Bob Hope Airport


Codes: KBUR/BUR
Name: Bob Hope Airport
City: Burbank
Country: United States
Elevation: 778 ft.

Photos at Bob Hope Airport


   Photos courtesy of SpottingLog. You can add your own sightings and photos by signing up for a free trial today.



No photos found.

Weather at Bob Hope Airport


Time (UTC)DescriptionTempratureWindCloud coverageVisibilityPressureHumidity
26-Jun-2024 00:00Clear Sky30°C9 mph, S1%10000m1013hPa39%
26-Jun-2024 03:00Clear Sky27°C7 mph, S1%10000m1013hPa44%
26-Jun-2024 06:00Clear Sky24°C4 mph, SE1%10000m1014hPa52%
26-Jun-2024 09:00Clear Sky22°C2 mph, S0%10000m1014hPa60%
26-Jun-2024 12:00Clear Sky21°C4 mph, SE0%10000m1014hPa65%
26-Jun-2024 15:00Clear Sky23°C4 mph, S0%10000m1014hPa59%
26-Jun-2024 18:00Clear Sky27°C7 mph, S0%10000m1014hPa42%
26-Jun-2024 21:00Clear Sky31°C7 mph, S1%10000m1012hPa33%
27-Jun-2024 00:00Clear Sky31°C9 mph, S1%10000m1011hPa34%
27-Jun-2024 03:00Clear Sky27°C7 mph, S1%10000m1011hPa45%
27-Jun-2024 06:00Clear Sky24°C4 mph, SE0%10000m1012hPa52%
27-Jun-2024 09:00Clear Sky22°C2 mph, S0%10000m1011hPa57%
27-Jun-2024 12:00Clear Sky22°C2 mph, S0%10000m1011hPa59%
27-Jun-2024 15:00Clear Sky23°C4 mph, S0%10000m1011hPa55%
27-Jun-2024 18:00Clear Sky28°C7 mph, S0%10000m1010hPa38%
27-Jun-2024 21:00Clear Sky32°C9 mph, S0%10000m1008hPa32%
28-Jun-2024 00:00Clear Sky30°C9 mph, S1%10000m1007hPa36%
28-Jun-2024 03:00Clear Sky26°C7 mph, S1%10000m1007hPa49%
28-Jun-2024 06:00Clear Sky23°C7 mph, SE1%10000m1008hPa54%
28-Jun-2024 09:00Clear Sky21°C4 mph, SE0%10000m1008hPa61%
28-Jun-2024 12:00Clear Sky21°C4 mph, SE0%10000m1008hPa65%
28-Jun-2024 15:00Clear Sky22°C4 mph, S0%10000m1009hPa62%
28-Jun-2024 18:00Clear Sky27°C7 mph, S0%10000m1009hPa43%
28-Jun-2024 21:00Clear Sky29°C9 mph, S0%10000m1008hPa31%
29-Jun-2024 00:00Clear Sky29°C9 mph, S0%10000m1008hPa29%
29-Jun-2024 03:00Clear Sky25°C9 mph, S2%10000m1009hPa43%
29-Jun-2024 06:00Clear Sky23°C4 mph, SE1%10000m1011hPa55%
29-Jun-2024 09:00Clear Sky21°C4 mph, SE0%10000m1011hPa61%
29-Jun-2024 12:00Clear Sky20°C2 mph, SE0%10000m1011hPa63%
29-Jun-2024 15:00Clear Sky22°C4 mph, S0%10000m1012hPa53%
29-Jun-2024 18:00Clear Sky27°C7 mph, S0%10000m1012hPa35%
29-Jun-2024 21:00Clear Sky31°C9 mph, S3%10000m1011hPa24%
30-Jun-2024 00:00Clear Sky31°C9 mph, S2%10000m1010hPa26%
30-Jun-2024 03:00Clear Sky27°C4 mph, S0%10000m1010hPa35%
30-Jun-2024 06:00Clear Sky25°C4 mph, SE0%10000m1012hPa39%
30-Jun-2024 09:00Clear Sky23°C2 mph, SE0%10000m1011hPa41%
30-Jun-2024 12:00Clear Sky22°C2 mph, SE0%10000m1011hPa40%
30-Jun-2024 15:00Clear Sky24°C2 mph, S0%10000m1013hPa37%
30-Jun-2024 18:00Clear Sky30°C4 mph, S0%10000m1013hPa24%
30-Jun-2024 21:00Clear Sky33°C9 mph, S1%10000m1011hPa17%